Alexandria, New York
Current Conditions -  °F | °C
As of 9:58 PM on Wednesday 22 Oct 2014 (Local Time) from KGTB Reporting Station
Overcast Overcast  
Wind Chill: 39°   Ceiling: 6500
Heat Index: 46°   Visibility: 10mi
Dew Point: 38°   Wind: 16mph
Humidity: 73%   Direction: 40°NE
Pressure: 30.14"   Gusts: NA
Location:  44.3057°N, 75.9374°W
Report Text: KGTB 230158Z AUTO 04014KT 10SM OVC065 08/03 A3014 RMK AO2 SLP211 T00760031
Loading
Personal Weather Stations






























Interactive Weather Map
Tropical Storm Tracking
New forecast layout! Learn more

10-Day Weather Forecast

Advertisements
Track Severe Weather on mobile